createdAt,value
2022-08-03T00:00:23.509Z,15.90
2022-08-03T00:04:11.678Z,15.70
2022-08-03T00:17:09.144Z,15.80
2022-08-03T00:25:38.687Z,15.50
2022-08-03T00:40:55.569Z,15.40
2022-08-03T00:44:31.110Z,15.40
2022-08-03T01:00:04.532Z,15.20
2022-08-03T01:04:20.220Z,15.30
2022-08-03T01:08:09.836Z,15.20
2022-08-03T01:12:19.274Z,15.20
2022-08-03T01:15:54.980Z,15.00
2022-08-03T01:23:53.541Z,15.10
2022-08-03T01:45:02.868Z,14.70
2022-08-03T01:47:31.800Z,14.50
2022-08-03T01:50:01.750Z,14.50
2022-08-03T01:52:32.559Z,14.50
2022-08-03T01:55:02.613Z,14.60
2022-08-03T01:57:31.191Z,14.70
2022-08-03T02:00:00.952Z,14.70
2022-08-03T02:02:33.218Z,14.70
2022-08-03T02:05:10.607Z,14.60
2022-08-03T02:07:41.111Z,14.60
2022-08-03T02:10:11.726Z,14.60
2022-08-03T02:12:40.273Z,14.60
2022-08-03T02:15:08.403Z,14.60
2022-08-03T02:17:38.589Z,14.60
2022-08-03T02:20:11.083Z,14.60
2022-08-03T02:22:43.810Z,14.50
2022-08-03T02:25:12.727Z,14.50
2022-08-03T02:27:46.535Z,14.50
2022-08-03T02:30:21.341Z,14.60
2022-08-03T02:32:56.005Z,14.60
2022-08-03T02:35:26.474Z,14.60
2022-08-03T02:38:02.506Z,14.60
2022-08-03T02:40:31.753Z,14.50
2022-08-03T02:43:05.326Z,14.30
2022-08-03T02:45:36.172Z,14.20
2022-08-03T02:48:06.981Z,14.10
2022-08-03T02:50:35.291Z,14.10
2022-08-03T02:53:04.425Z,14.20
2022-08-03T02:55:34.865Z,14.30
2022-08-03T02:58:04.234Z,14.30
2022-08-03T03:00:36.387Z,14.40
2022-08-03T03:03:06.465Z,14.40
2022-08-03T03:05:55.965Z,14.30
2022-08-03T03:08:28.209Z,14.30
2022-08-03T03:10:59.343Z,14.20
2022-08-03T03:13:29.631Z,14.20
2022-08-03T03:16:04.772Z,14.20
2022-08-03T03:18:34.750Z,14.20
2022-08-03T03:21:05.132Z,14.10
2022-08-03T03:23:39.344Z,14.10
2022-08-03T03:26:11.357Z,14.20
2022-08-03T03:28:45.839Z,14.20
2022-08-03T03:31:14.795Z,14.20
2022-08-03T03:33:45.183Z,14.20
2022-08-03T03:36:18.721Z,14.30
2022-08-03T03:38:50.242Z,14.30
2022-08-03T03:41:24.114Z,14.30
2022-08-03T03:43:56.333Z,14.10
2022-08-03T03:46:29.606Z,14.00
2022-08-03T03:49:04.582Z,13.90
2022-08-03T03:51:36.086Z,14.00
2022-08-03T03:54:21.433Z,14.10
2022-08-03T03:56:53.064Z,14.10
2022-08-03T03:59:25.694Z,14.10
2022-08-03T04:02:01.690Z,14.10
2022-08-03T04:05:11.548Z,14.20
2022-08-03T04:08:24.886Z,14.30
2022-08-03T04:11:31.795Z,14.50
2022-08-03T04:14:16.790Z,14.50
2022-08-03T04:19:47.982Z,14.70
2022-08-03T04:22:44.975Z,14.80
2022-08-03T04:25:18.295Z,14.90
2022-08-03T04:28:19.695Z,15.00
2022-08-03T04:30:38.958Z,15.00
2022-08-03T04:33:08.343Z,15.10
2022-08-03T04:35:59.764Z,15.10
2022-08-03T04:38:25.685Z,15.20
2022-08-03T04:40:54.458Z,15.20
2022-08-03T04:43:24.015Z,15.30
2022-08-03T04:45:52.409Z,15.30
2022-08-03T04:48:20.757Z,15.30
2022-08-03T04:50:48.687Z,15.30
2022-08-03T04:53:18.215Z,15.50
2022-08-03T04:55:47.344Z,15.60
2022-08-03T04:58:15.050Z,15.70
2022-08-03T05:00:43.427Z,15.80
2022-08-03T05:03:19.429Z,16.00
2022-08-03T05:06:01.990Z,16.30
2022-08-03T05:08:45.265Z,16.60
2022-08-03T05:11:17.976Z,16.80
2022-08-03T05:13:46.272Z,17.00
2022-08-03T05:16:14.963Z,16.90
2022-08-03T05:18:43.456Z,16.90
2022-08-03T05:21:14.137Z,16.80
2022-08-03T05:23:41.922Z,16.80
2022-08-03T05:26:11.820Z,16.90
2022-08-03T05:28:39.984Z,17.10
2022-08-03T05:31:19.457Z,17.30
2022-08-03T05:33:48.676Z,17.30
2022-08-03T05:36:16.955Z,17.50
2022-08-03T05:38:44.767Z,17.60
2022-08-03T05:41:20.238Z,17.90
2022-08-03T05:43:54.967Z,18.10
2022-08-03T05:46:23.441Z,18.20
2022-08-03T05:48:51.350Z,18.30
2022-08-03T05:51:19.470Z,18.50
2022-08-03T05:53:47.170Z,18.60
2022-08-03T05:56:16.658Z,18.80
2022-08-03T05:58:46.654Z,18.80
2022-08-03T06:01:15.833Z,18.90
2022-08-03T06:03:43.664Z,19.10
2022-08-03T06:06:11.781Z,19.10
2022-08-03T06:08:41.201Z,19.10
2022-08-03T06:11:09.807Z,19.20
2022-08-03T06:13:37.738Z,19.30
2022-08-03T06:16:06.162Z,19.40
2022-08-03T06:18:34.288Z,19.50
2022-08-03T06:21:14.621Z,19.60
2022-08-03T06:23:52.825Z,19.70
2022-08-03T06:26:21.266Z,19.80
2022-08-03T06:28:53.015Z,19.90
2022-08-03T06:31:24.153Z,20.00
2022-08-03T06:34:33.975Z,20.20
2022-08-03T06:36:39.859Z,20.40
2022-08-03T06:39:08.314Z,20.60
2022-08-03T06:41:37.433Z,20.70
2022-08-03T06:44:10.390Z,20.70
2022-08-03T06:46:38.178Z,20.80
2022-08-03T06:49:06.775Z,20.80
2022-08-03T06:52:03.276Z,20.70
2022-08-03T06:54:22.410Z,20.50
2022-08-03T06:56:50.577Z,20.50
2022-08-03T07:00:10.526Z,20.70
2022-08-03T07:02:06.465Z,20.60
2022-08-03T07:04:34.121Z,20.80
2022-08-03T07:07:02.123Z,20.90
2022-08-03T07:09:29.776Z,21.00
2022-08-03T07:11:57.540Z,21.00
2022-08-03T07:14:25.371Z,21.20
2022-08-03T07:16:53.038Z,21.30
2022-08-03T07:19:20.701Z,21.50
2022-08-03T07:21:48.396Z,21.60
2022-08-03T07:24:16.081Z,21.60
2022-08-03T07:26:43.782Z,21.70
2022-08-03T07:29:14.849Z,21.80
2022-08-03T07:31:43.253Z,21.70
2022-08-03T07:34:10.985Z,21.70
2022-08-03T07:36:38.725Z,22.00
2022-08-03T07:39:16.571Z,22.40
2022-08-03T07:41:46.488Z,22.70
2022-08-03T07:44:14.679Z,22.80
2022-08-03T07:46:42.439Z,23.00
2022-08-03T07:49:10.426Z,23.20
2022-08-03T07:51:38.167Z,23.30
2022-08-03T07:54:06.098Z,23.40
2022-08-03T07:56:33.911Z,23.60
2022-08-03T07:59:02.982Z,23.70
2022-08-03T08:01:32.871Z,23.80
2022-08-03T08:04:00.677Z,24.00
2022-08-03T08:06:28.329Z,24.10
2022-08-03T08:08:59.659Z,24.10
2022-08-03T08:11:27.320Z,24.20
2022-08-03T08:13:57.281Z,24.30
2022-08-03T08:16:25.018Z,24.40
2022-08-03T08:18:52.674Z,24.50
2022-08-03T08:21:20.332Z,24.60
2022-08-03T08:23:57.011Z,24.50
2022-08-03T08:26:25.601Z,24.60
2022-08-03T08:28:53.303Z,24.90
2022-08-03T08:31:20.998Z,25.40
2022-08-03T08:34:03.642Z,25.70
2022-08-03T08:36:33.730Z,25.60
2022-08-03T08:39:02.076Z,25.60
2022-08-03T08:41:33.781Z,25.60
2022-08-03T08:44:02.589Z,25.70
2022-08-03T08:46:32.949Z,25.60
2022-08-03T08:49:05.055Z,25.60
2022-08-03T08:51:51.011Z,25.60
2022-08-03T08:54:26.072Z,25.50
2022-08-03T08:56:56.093Z,25.60
2022-08-03T08:59:25.249Z,25.70
2022-08-03T09:01:58.119Z,25.80
2022-08-03T09:04:26.642Z,25.70
2022-08-03T09:07:18.873Z,25.70
2022-08-03T09:10:10.604Z,25.60
2022-08-03T09:12:41.842Z,25.60
2022-08-03T09:15:28.219Z,25.70
2022-08-03T09:17:58.762Z,25.80
2022-08-03T09:20:33.144Z,25.80
2022-08-03T09:23:09.675Z,25.80
2022-08-03T09:26:00.016Z,25.90
2022-08-03T09:29:00.085Z,25.90
2022-08-03T09:31:35.575Z,26.00
2022-08-03T09:34:09.592Z,26.20
2022-08-03T09:36:40.101Z,26.30
2022-08-03T09:39:10.988Z,26.40
2022-08-03T09:41:43.266Z,26.50
2022-08-03T09:44:25.179Z,26.60
2022-08-03T09:46:58.495Z,26.50
2022-08-03T09:49:29.223Z,26.50
2022-08-03T09:52:32.416Z,26.60
2022-08-03T09:54:51.973Z,26.60
2022-08-03T09:57:27.239Z,26.40
2022-08-03T10:00:08.303Z,26.50
2022-08-03T10:02:43.915Z,26.70
2022-08-03T10:05:17.632Z,26.70
2022-08-03T10:07:50.008Z,26.70
2022-08-03T10:10:29.590Z,26.80
2022-08-03T10:13:00.784Z,26.80
2022-08-03T10:16:23.842Z,27.00
2022-08-03T10:18:16.836Z,27.10
2022-08-03T10:20:49.908Z,27.10
2022-08-03T10:23:19.165Z,27.10
2022-08-03T10:25:49.653Z,27.20
2022-08-03T10:28:19.669Z,27.30
2022-08-03T10:30:53.529Z,27.30
2022-08-03T10:33:50.713Z,27.30
2022-08-03T10:36:24.627Z,27.50
2022-08-03T10:38:53.780Z,27.60
2022-08-03T10:41:25.979Z,27.40
2022-08-03T10:44:10.019Z,27.30
2022-08-03T10:46:44.790Z,27.30
2022-08-03T10:49:15.100Z,27.40
2022-08-03T10:51:46.985Z,27.60
2022-08-03T10:55:03.664Z,27.70
2022-08-03T10:57:56.168Z,27.70
2022-08-03T11:00:30.160Z,27.50
2022-08-03T11:03:09.430Z,27.30
2022-08-03T11:05:39.930Z,27.40
2022-08-03T11:08:31.447Z,27.50
2022-08-03T11:11:00.610Z,27.60
2022-08-03T11:13:31.994Z,27.60
2022-08-03T11:16:04.900Z,27.80
2022-08-03T11:18:34.362Z,27.80
2022-08-03T11:21:02.136Z,28.00
2022-08-03T11:24:04.660Z,27.90
2022-08-03T11:26:34.771Z,27.90
2022-08-03T11:29:29.681Z,27.80
2022-08-03T11:31:57.787Z,27.70
2022-08-03T11:34:25.736Z,27.60
2022-08-03T11:37:23.973Z,27.70
2022-08-03T11:39:54.799Z,27.80
2022-08-03T11:42:22.563Z,27.80
2022-08-03T11:45:00.202Z,27.90
2022-08-03T11:47:29.904Z,27.90
2022-08-03T11:50:00.693Z,28.20
2022-08-03T11:52:35.419Z,28.30
2022-08-03T11:55:09.864Z,28.40
2022-08-03T11:59:12.972Z,28.50
2022-08-03T12:00:29.583Z,28.50
2022-08-03T12:02:58.287Z,28.60
2022-08-03T12:05:40.961Z,28.70
2022-08-03T12:08:10.630Z,28.90
2022-08-03T12:10:39.829Z,29.00
2022-08-03T12:14:35.601Z,29.00
2022-08-03T12:15:59.419Z,29.10
2022-08-03T12:18:27.189Z,29.10
2022-08-03T12:21:05.240Z,29.10
2022-08-03T12:23:37.553Z,29.00
2022-08-03T12:26:10.136Z,29.00
2022-08-03T12:28:38.596Z,29.00
2022-08-03T12:31:09.364Z,29.10
2022-08-03T12:33:58.733Z,29.20
2022-08-03T12:36:28.135Z,29.20
2022-08-03T12:39:04.560Z,29.20
2022-08-03T12:41:36.835Z,29.30
2022-08-03T12:44:09.313Z,29.30
2022-08-03T12:46:42.727Z,29.40
2022-08-03T12:49:15.534Z,29.40
2022-08-03T12:51:43.353Z,29.40
2022-08-03T12:54:17.757Z,29.30
2022-08-03T12:57:08.411Z,29.30
2022-08-03T12:59:52.834Z,29.40
2022-08-03T13:02:24.083Z,29.40
2022-08-03T13:04:55.375Z,29.30
2022-08-03T13:07:23.557Z,29.20
2022-08-03T13:09:55.791Z,29.20
2022-08-03T13:12:25.650Z,29.10
2022-08-03T13:14:56.986Z,29.30
2022-08-03T13:17:25.645Z,29.60
2022-08-03T13:19:53.921Z,29.60
2022-08-03T13:22:23.210Z,29.80
2022-08-03T13:24:53.326Z,29.70
2022-08-03T13:28:01.661Z,29.50
2022-08-03T13:30:10.308Z,29.50
2022-08-03T13:32:38.213Z,29.60
2022-08-03T13:35:07.094Z,29.70
2022-08-03T13:37:35.082Z,29.70
2022-08-03T13:40:05.982Z,29.90
2022-08-03T13:42:35.549Z,29.90
2022-08-03T13:45:06.257Z,29.90
2022-08-03T13:47:34.005Z,29.90
2022-08-03T13:50:03.115Z,30.00
2022-08-03T13:52:34.386Z,29.90
2022-08-03T13:55:04.701Z,29.90
2022-08-03T13:58:04.730Z,30.00
2022-08-03T14:00:28.014Z,30.00
2022-08-03T14:03:03.788Z,30.00
2022-08-03T14:05:34.010Z,30.00
2022-08-03T14:08:04.933Z,30.00
2022-08-03T14:10:35.762Z,29.90
2022-08-03T14:13:04.886Z,29.80
2022-08-03T14:15:37.845Z,29.90
2022-08-03T14:18:15.531Z,29.90
2022-08-03T14:20:47.855Z,29.80
2022-08-03T14:23:20.102Z,29.80
2022-08-03T14:25:50.292Z,29.80
2022-08-03T14:28:22.672Z,29.90
2022-08-03T14:30:51.939Z,29.90
2022-08-03T14:33:20.315Z,30.00
2022-08-03T14:35:48.747Z,30.10
2022-08-03T14:38:17.060Z,30.30
2022-08-03T14:40:44.974Z,30.50
2022-08-03T14:43:12.815Z,30.50
2022-08-03T14:45:40.772Z,30.50
2022-08-03T14:50:33.886Z,30.40
2022-08-03T14:50:56.832Z,30.30
2022-08-03T14:53:24.918Z,30.20
2022-08-03T14:55:53.477Z,30.20
2022-08-03T14:58:23.065Z,30.10
2022-08-03T15:00:52.248Z,30.10
2022-08-03T15:03:23.753Z,30.10
2022-08-03T15:05:53.010Z,30.20
2022-08-03T15:08:21.612Z,30.20
2022-08-03T15:10:50.603Z,30.30
2022-08-03T15:13:19.889Z,30.50
2022-08-03T15:15:48.088Z,30.60
2022-08-03T15:18:16.099Z,30.60
2022-08-03T15:20:45.826Z,30.60
2022-08-03T15:23:15.203Z,30.50
2022-08-03T15:26:28.424Z,30.50
2022-08-03T15:28:32.463Z,30.50
2022-08-03T15:31:00.814Z,30.50
2022-08-03T15:33:29.392Z,30.60
2022-08-03T15:35:57.411Z,30.70
2022-08-03T15:38:25.734Z,30.80
2022-08-03T15:40:55.122Z,30.80
2022-08-03T15:43:24.363Z,30.70
2022-08-03T15:46:12.669Z,30.80
2022-08-03T15:48:41.076Z,30.70
2022-08-03T15:51:09.712Z,30.60
2022-08-03T15:53:38.381Z,30.50
2022-08-03T15:56:12.329Z,30.50
2022-08-03T15:59:03.435Z,30.40
2022-08-03T16:01:30.507Z,30.30
2022-08-03T16:03:58.308Z,30.30
2022-08-03T16:06:35.277Z,30.40
2022-08-03T16:09:24.000Z,30.40
2022-08-03T16:11:55.549Z,30.30
2022-08-03T16:14:35.621Z,30.30
2022-08-03T16:17:08.045Z,30.30
2022-08-03T16:19:35.809Z,30.30
2022-08-03T16:22:03.561Z,30.30
2022-08-03T16:24:31.719Z,30.30
2022-08-03T16:27:00.749Z,30.20
2022-08-03T16:29:28.758Z,30.10
2022-08-03T16:31:56.591Z,30.20
2022-08-03T16:34:24.265Z,30.30
2022-08-03T16:36:52.578Z,30.30
2022-08-03T16:39:20.265Z,30.20
2022-08-03T16:41:53.532Z,30.20
2022-08-03T16:44:30.877Z,30.30
2022-08-03T16:46:59.595Z,30.30
2022-08-03T16:49:55.056Z,30.30
2022-08-03T16:52:16.633Z,30.40
2022-08-03T16:54:52.744Z,30.50
2022-08-03T16:57:55.680Z,30.40
2022-08-03T17:00:12.028Z,30.30
2022-08-03T17:02:48.048Z,30.20
2022-08-03T17:05:16.132Z,30.10
2022-08-03T17:07:50.551Z,30.20
2022-08-03T17:10:27.131Z,30.10
2022-08-03T17:12:55.178Z,30.10
2022-08-03T17:15:37.733Z,30.10
2022-08-03T17:18:08.699Z,30.20
2022-08-03T17:20:38.855Z,30.10
2022-08-03T17:23:35.267Z,30.20
2022-08-03T17:26:10.550Z,30.20
2022-08-03T17:28:50.157Z,30.20
2022-08-03T17:31:23.098Z,30.10
2022-08-03T17:34:01.592Z,30.10
2022-08-03T17:37:00.899Z,30.10
2022-08-03T17:39:30.833Z,30.40
2022-08-03T17:42:05.396Z,30.70
2022-08-03T17:44:53.903Z,31.10
2022-08-03T17:47:22.162Z,30.80
2022-08-03T17:49:57.077Z,30.40
2022-08-03T17:52:42.114Z,30.10
2022-08-03T17:55:55.731Z,30.00
2022-08-03T17:58:18.913Z,29.90
2022-08-03T18:01:57.501Z,29.60
2022-08-03T18:04:02.970Z,29.80
2022-08-03T18:06:55.850Z,30.20
2022-08-03T18:10:05.144Z,29.90
2022-08-03T18:12:34.453Z,29.00
2022-08-03T18:15:08.703Z,28.30
2022-08-03T18:17:55.736Z,27.70
2022-08-03T18:20:34.113Z,27.30
2022-08-03T18:23:07.071Z,27.20
2022-08-03T18:25:45.632Z,27.40
2022-08-03T18:28:23.404Z,27.20
2022-08-03T18:30:53.211Z,26.70
2022-08-03T18:34:16.629Z,26.30
2022-08-03T18:36:22.060Z,26.10
2022-08-03T18:38:59.909Z,25.80
2022-08-03T18:41:32.716Z,25.60
2022-08-03T18:44:08.130Z,25.40
2022-08-03T18:47:51.520Z,25.20
2022-08-03T18:50:35.803Z,25.00
2022-08-03T18:53:22.617Z,24.80
2022-08-03T18:56:38.160Z,24.60
2022-08-03T18:59:16.525Z,24.30
2022-08-03T19:02:06.145Z,24.20
2022-08-03T19:04:47.458Z,23.90
2022-08-03T19:07:23.454Z,23.80
2022-08-03T19:09:59.902Z,23.70
2022-08-03T19:12:39.802Z,23.50
2022-08-03T19:18:06.024Z,23.30
2022-08-03T19:20:37.083Z,23.10
2022-08-03T19:23:06.546Z,23.00
2022-08-03T19:25:39.394Z,22.80
2022-08-03T19:28:09.240Z,22.60
2022-08-03T19:30:46.256Z,22.40
2022-08-03T19:33:22.795Z,22.30
2022-08-03T19:38:38.831Z,22.10
2022-08-03T19:41:13.787Z,22.00
2022-08-03T19:43:53.612Z,21.80
2022-08-03T19:46:30.668Z,21.60
2022-08-03T19:49:15.221Z,21.60
2022-08-03T19:51:59.393Z,21.60
2022-08-03T19:54:52.981Z,21.50
2022-08-03T19:57:25.459Z,21.50
2022-08-03T19:59:56.094Z,21.40
2022-08-03T20:02:26.293Z,21.40
2022-08-03T20:04:57.156Z,21.30
2022-08-03T20:07:26.554Z,21.10
2022-08-03T20:09:56.494Z,21.00
2022-08-03T20:12:29.229Z,20.90
2022-08-03T20:14:58.266Z,20.70
2022-08-03T20:17:55.441Z,20.70
2022-08-03T20:20:30.030Z,20.60
2022-08-03T20:23:00.216Z,20.60
2022-08-03T20:25:38.869Z,20.60
2022-08-03T20:28:15.063Z,20.50
2022-08-03T20:30:46.463Z,20.40
2022-08-03T20:33:18.356Z,20.10
2022-08-03T20:35:48.847Z,20.00
2022-08-03T20:38:20.444Z,20.00
2022-08-03T20:40:56.364Z,20.00
2022-08-03T20:43:27.479Z,20.00
2022-08-03T20:46:00.811Z,20.00
2022-08-03T20:48:48.593Z,19.90
2022-08-03T20:51:19.921Z,19.90
2022-08-03T20:54:00.082Z,19.90
2022-08-03T20:56:35.599Z,19.90
2022-08-03T20:59:07.118Z,19.80
2022-08-03T21:01:44.335Z,19.80
2022-08-03T21:04:13.587Z,19.80
2022-08-03T21:06:56.152Z,19.80
2022-08-03T21:09:33.382Z,19.80
2022-08-03T21:12:12.940Z,19.80
2022-08-03T21:13:01.802Z,23.30
2022-08-03T21:13:02.506Z,22.20
2022-08-03T21:14:57.349Z,19.70
2022-08-03T21:17:39.932Z,19.40
2022-08-03T21:20:10.937Z,19.40
2022-08-03T21:22:42.963Z,19.30
2022-08-03T21:25:14.216Z,19.30
2022-08-03T21:27:42.624Z,19.30
2022-08-03T21:30:11.934Z,19.30
2022-08-03T21:32:43.367Z,19.30
2022-08-03T21:35:12.979Z,19.30
2022-08-03T21:37:42.593Z,19.10
2022-08-03T21:40:13.350Z,19.10
2022-08-03T21:42:44.022Z,19.10
2022-08-03T21:45:17.040Z,19.10
2022-08-03T21:47:47.301Z,19.10
2022-08-03T21:50:15.880Z,19.10
2022-08-03T21:52:48.911Z,19.00
2022-08-03T21:55:20.307Z,19.00
2022-08-03T21:57:53.591Z,18.90
2022-08-03T22:00:26.030Z,18.80
2022-08-03T22:03:15.286Z,18.80
2022-08-03T22:05:46.937Z,18.80
2022-08-03T22:08:16.806Z,18.70
2022-08-03T22:10:46.310Z,18.60
2022-08-03T22:13:20.701Z,18.60
2022-08-03T22:16:05.745Z,18.50
2022-08-03T22:18:38.378Z,18.50
2022-08-03T22:21:09.258Z,18.50
2022-08-03T22:23:41.751Z,18.40
2022-08-03T22:26:18.250Z,18.40
2022-08-03T22:29:09.477Z,18.40
2022-08-03T22:31:58.776Z,18.40
2022-08-03T22:34:27.656Z,18.40
2022-08-03T22:37:00.745Z,18.40
2022-08-03T22:39:33.540Z,18.40
2022-08-03T22:42:05.589Z,18.40
2022-08-03T22:44:36.353Z,18.40
2022-08-03T22:47:05.768Z,18.30
2022-08-03T22:49:35.871Z,18.30
2022-08-03T22:52:04.007Z,18.30
2022-08-03T22:54:32.984Z,18.30
2022-08-03T22:57:03.464Z,18.30
2022-08-03T22:59:41.127Z,18.10
2022-08-03T23:02:20.966Z,18.10
2022-08-03T23:04:55.930Z,18.00
2022-08-03T23:07:37.000Z,18.00
2022-08-03T23:10:08.321Z,17.90
2022-08-03T23:12:39.317Z,17.90
2022-08-03T23:15:08.951Z,17.80
2022-08-03T23:17:57.395Z,17.90
2022-08-03T23:20:33.642Z,18.00
2022-08-03T23:23:05.062Z,18.00
2022-08-03T23:25:39.478Z,17.90
2022-08-03T23:28:15.236Z,17.90
2022-08-03T23:30:49.180Z,17.90
2022-08-03T23:33:18.386Z,18.00
2022-08-03T23:36:28.619Z,17.90
2022-08-03T23:38:51.302Z,17.90
2022-08-03T23:41:20.250Z,17.90
2022-08-03T23:43:51.931Z,17.80
2022-08-03T23:46:27.509Z,17.80
2022-08-03T23:49:00.948Z,17.80
2022-08-03T23:51:35.082Z,17.80
2022-08-03T23:54:29.036Z,17.80
2022-08-03T23:57:35.664Z,17.70
